createdAt,value
2018-09-28T00:02:04.610Z,6.40
2018-09-28T00:07:07.711Z,6.80
2018-09-28T00:12:10.804Z,5.60
2018-09-28T00:17:13.869Z,6.27
2018-09-28T00:22:17.001Z,6.63
2018-09-28T00:27:20.151Z,6.37
2018-09-28T00:32:23.295Z,6.60
2018-09-28T00:37:26.468Z,7.40
2018-09-28T00:42:29.644Z,6.93
2018-09-28T00:47:32.968Z,7.27
2018-09-28T00:52:36.112Z,7.20
2018-09-28T00:57:39.267Z,7.17
2018-09-28T01:02:42.412Z,7.87
2018-09-28T01:07:45.596Z,8.53
2018-09-28T01:12:48.773Z,8.43
2018-09-28T01:17:51.939Z,7.87
2018-09-28T01:22:54.997Z,8.43
2018-09-28T01:27:58.248Z,8.27
2018-09-28T01:33:01.343Z,9.20
2018-09-28T01:38:04.535Z,9.13
2018-09-28T01:43:07.719Z,10.50
2018-09-28T01:48:10.836Z,11.07
2018-09-28T01:53:13.918Z,11.10
2018-09-28T01:58:16.998Z,12.30
2018-09-28T02:03:20.067Z,11.93
2018-09-28T02:08:23.131Z,14.50
2018-09-28T02:13:27.110Z,13.63
2018-09-28T02:18:30.250Z,14.53
2018-09-28T02:23:33.327Z,15.57
2018-09-28T02:28:36.659Z,15.90
2018-09-28T02:33:39.732Z,15.57
2018-09-28T02:38:42.792Z,16.10
2018-09-28T02:43:47.251Z,15.90
2018-09-28T02:48:50.399Z,17.00
2018-09-28T02:53:53.444Z,16.90
2018-09-28T02:58:56.527Z,17.50
2018-09-28T03:03:59.639Z,16.23
2018-09-28T03:09:03.119Z,18.43
2018-09-28T03:14:06.676Z,17.33
2018-09-28T03:19:09.874Z,16.63
2018-09-28T03:24:12.972Z,17.80
2018-09-28T03:29:16.040Z,19.70
2018-09-28T03:34:19.120Z,19.93
2018-09-28T03:39:22.292Z,19.37
2018-09-28T03:44:25.392Z,20.70
2018-09-28T03:49:28.475Z,20.90
2018-09-28T03:54:31.721Z,21.23
2018-09-28T03:59:34.781Z,21.03
2018-09-28T04:04:37.854Z,21.70
2018-09-28T04:09:41.007Z,21.50
2018-09-28T04:14:44.135Z,21.27
2018-09-28T04:19:47.309Z,22.30
2018-09-28T04:24:50.388Z,22.27
2018-09-28T04:29:53.524Z,20.93
2018-09-28T04:34:56.751Z,23.57
2018-09-28T04:39:59.804Z,23.37
2018-09-28T04:45:03.002Z,21.47
2018-09-28T04:50:06.111Z,22.93
2018-09-28T04:55:09.229Z,20.60
2018-09-28T05:00:12.384Z,18.60
2018-09-28T05:05:15.442Z,17.23
2018-09-28T05:10:18.596Z,15.73
2018-09-28T05:15:21.727Z,13.83
2018-09-28T05:20:24.928Z,13.40
2018-09-28T05:25:28.231Z,12.17
2018-09-28T05:30:31.404Z,11.43
2018-09-28T05:35:34.524Z,8.73
2018-09-28T05:40:37.859Z,7.77
2018-09-28T05:45:40.961Z,3.63
2018-09-28T05:50:44.021Z,3.10
2018-09-28T05:55:47.110Z,2.13
2018-09-28T06:00:55.656Z,2.20
2018-09-28T06:06:03.673Z,1.90
2018-09-28T06:11:06.852Z,1.57
2018-09-28T06:16:09.989Z,1.60
2018-09-28T06:21:22.646Z,1.17
2018-09-28T06:32:10.779Z,1.03
2018-09-28T06:37:13.875Z,1.97
2018-09-28T06:42:17.025Z,1.40
2018-09-28T06:47:20.099Z,1.77
2018-09-28T06:52:23.200Z,2.60
2018-09-28T06:57:26.253Z,1.30
2018-09-28T07:02:29.348Z,1.50
2018-09-28T07:07:32.432Z,1.70
2018-09-28T07:12:35.524Z,1.47
2018-09-28T07:17:38.646Z,1.03
2018-09-28T07:22:41.761Z,1.23
2018-09-28T07:27:44.876Z,1.40
2018-09-28T07:32:47.979Z,1.33
2018-09-28T07:37:51.043Z,1.53
2018-09-28T07:42:54.103Z,1.23
2018-09-28T07:47:57.231Z,1.73
2018-09-28T07:53:00.266Z,2.30
2018-09-28T07:58:03.388Z,2.30
2018-09-28T08:03:06.524Z,2.73
2018-09-28T08:08:09.567Z,2.00
2018-09-28T08:13:12.657Z,1.23
2018-09-28T08:18:15.752Z,3.20
2018-09-28T08:23:18.905Z,2.60
2018-09-28T08:28:21.991Z,1.50
2018-09-28T08:33:25.096Z,2.10
2018-09-28T08:38:28.185Z,2.40
2018-09-28T08:43:31.323Z,1.67
2018-09-28T08:48:34.492Z,2.73
2018-09-28T08:53:37.563Z,2.23
2018-09-28T08:58:40.714Z,1.57
2018-09-28T09:03:43.855Z,2.53
2018-09-28T09:08:47.004Z,1.90
2018-09-28T09:13:50.072Z,1.50
2018-09-28T09:18:53.259Z,2.00
2018-09-28T09:23:56.470Z,1.10
2018-09-28T09:28:59.548Z,1.73
2018-09-28T09:34:02.625Z,1.37
2018-09-28T09:39:08.046Z,2.07
2018-09-28T09:44:11.136Z,1.70
2018-09-28T09:49:14.255Z,1.30
2018-09-28T09:54:17.333Z,1.90
2018-09-28T09:59:20.421Z,1.77
2018-09-28T10:04:23.656Z,1.27
2018-09-28T10:09:27.371Z,1.50
2018-09-28T10:14:33.792Z,1.40
2018-09-28T10:19:37.042Z,1.43
2018-09-28T10:24:40.095Z,2.33
2018-09-28T10:29:43.166Z,1.63
2018-09-28T10:34:46.338Z,1.60
2018-09-28T10:39:49.505Z,1.10
2018-09-28T10:44:52.543Z,1.10
2018-09-28T10:49:55.603Z,1.73
2018-09-28T10:54:58.679Z,1.10
2018-09-28T11:00:01.889Z,1.30
2018-09-28T11:05:05.132Z,1.60
2018-09-28T11:10:08.397Z,1.37
2018-09-28T11:15:11.513Z,1.40
2018-09-28T11:20:14.590Z,1.40
2018-09-28T11:25:17.679Z,1.40
2018-09-28T11:30:20.739Z,1.43
2018-09-28T11:35:23.808Z,1.13
2018-09-28T11:40:26.944Z,1.27
2018-09-28T11:45:30.178Z,1.43
2018-09-28T11:50:34.059Z,0.80
2018-09-28T11:55:37.656Z,1.10
2018-09-28T12:00:40.933Z,1.40
2018-09-28T12:05:44.772Z,1.20
2018-09-28T12:10:47.927Z,1.67
2018-09-28T12:15:51.200Z,1.47
2018-09-28T12:20:54.163Z,1.97
2018-09-28T12:25:57.316Z,1.30
2018-09-28T12:31:00.479Z,1.30
2018-09-28T12:36:03.626Z,1.00
2018-09-28T12:41:06.853Z,1.47
2018-09-28T12:46:10.095Z,1.57
2018-09-28T12:51:13.496Z,1.20
2018-09-28T12:56:16.632Z,1.20
2018-09-28T13:01:19.904Z,1.00
2018-09-28T13:06:23.213Z,1.03
2018-09-28T13:11:26.354Z,0.70
2018-09-28T13:16:29.474Z,1.20
2018-09-28T13:21:32.607Z,0.77
2018-09-28T13:26:35.743Z,1.37
2018-09-28T13:31:38.907Z,1.10
2018-09-28T13:36:42.153Z,1.27
2018-09-28T13:41:45.287Z,0.60
2018-09-28T13:46:48.463Z,0.70
2018-09-28T13:51:52.455Z,0.73
2018-09-28T13:56:55.570Z,0.80
2018-09-28T14:01:58.671Z,0.93
2018-09-28T14:07:01.862Z,2.30
2018-09-28T14:12:04.928Z,0.80
2018-09-28T14:17:08.106Z,1.40
2018-09-28T14:22:11.564Z,0.90
2018-09-28T14:27:14.687Z,1.53
2018-09-28T14:32:17.798Z,7.90
2018-09-28T14:37:20.924Z,1.30
2018-09-28T14:42:24.088Z,1.00
2018-09-28T14:47:27.233Z,1.20
2018-09-28T14:52:30.577Z,0.70
2018-09-28T14:57:33.699Z,1.17
2018-09-28T15:02:36.939Z,0.80
2018-09-28T15:07:40.198Z,1.40
2018-09-28T15:12:43.221Z,1.17
2018-09-28T15:17:46.392Z,0.83
2018-09-28T15:22:49.499Z,0.90
2018-09-28T15:27:52.583Z,1.50
2018-09-28T15:32:55.697Z,0.93
2018-09-28T15:37:58.815Z,1.00
2018-09-28T15:43:01.899Z,1.10
2018-09-28T15:48:05.093Z,0.90
2018-09-28T15:53:08.187Z,1.10
2018-09-28T15:58:11.364Z,1.20
2018-09-28T16:03:14.423Z,0.90
2018-09-28T16:08:17.504Z,0.80
2018-09-28T16:13:20.584Z,2.10
2018-09-28T16:18:23.668Z,1.80
2018-09-28T16:23:26.714Z,0.87
2018-09-28T16:28:31.607Z,0.90
2018-09-28T16:33:35.335Z,1.40
2018-09-28T16:38:38.745Z,1.53
2018-09-28T16:43:42.712Z,1.13
2018-09-28T16:48:45.844Z,2.13
2018-09-28T16:53:49.264Z,0.90
2018-09-28T16:58:52.439Z,2.20
2018-09-28T17:03:55.647Z,1.17
2018-09-28T17:08:58.784Z,1.23
2018-09-28T17:14:01.824Z,0.93
2018-09-28T17:19:04.996Z,0.70
2018-09-28T17:24:08.123Z,0.90
2018-09-28T17:29:11.506Z,3.50
2018-09-28T17:34:14.789Z,1.33
2018-09-28T17:39:18.891Z,1.27
2018-09-28T17:44:22.271Z,0.90
2018-09-28T17:49:27.429Z,1.13
2018-09-28T17:54:31.857Z,1.10
2018-09-28T17:59:35.777Z,0.60
2018-09-28T18:04:39.203Z,0.70
2018-09-28T18:09:43.118Z,1.43
2018-09-28T18:14:46.496Z,1.13
2018-09-28T18:19:49.873Z,0.90
2018-09-28T18:24:53.051Z,1.17
2018-09-28T18:29:56.195Z,1.17
2018-09-28T18:34:59.257Z,1.07
2018-09-28T18:40:02.391Z,2.83
2018-09-28T18:45:05.677Z,1.50
2018-09-28T18:50:08.876Z,1.80
2018-09-28T18:55:12.842Z,1.50
2018-09-28T19:00:15.979Z,1.33
2018-09-28T19:05:19.439Z,1.40
2018-09-28T19:10:23.345Z,1.47
2018-09-28T19:15:26.724Z,1.47
2018-09-28T19:20:30.151Z,1.70
2018-09-28T19:25:34.731Z,1.07
2018-09-28T19:30:38.969Z,1.07
2018-09-28T19:35:42.532Z,1.10
2018-09-28T19:40:45.649Z,0.97
2018-09-28T19:45:48.871Z,1.57
2018-09-28T19:50:52.057Z,1.63
2018-09-28T19:55:55.568Z,1.07
2018-09-28T20:00:58.687Z,1.27
2018-09-28T20:06:01.823Z,4.63
2018-09-28T20:11:05.191Z,1.60
2018-09-28T20:16:08.468Z,1.57
2018-09-28T20:21:12.076Z,1.43
2018-09-28T20:26:15.179Z,1.50
2018-09-28T20:31:18.247Z,1.33
2018-09-28T20:36:21.299Z,1.10
2018-09-28T20:41:24.415Z,1.30
2018-09-28T20:46:27.762Z,1.70
2018-09-28T20:51:30.945Z,1.97
2018-09-28T20:56:34.028Z,1.70
2018-09-28T21:01:37.093Z,1.50
2018-09-28T21:06:40.150Z,1.40
2018-09-28T21:11:43.232Z,3.20
2018-09-28T21:16:46.326Z,1.70
2018-09-28T21:21:49.379Z,1.10
2018-09-28T21:26:52.444Z,1.30
2018-09-28T21:31:55.579Z,1.63
2018-09-28T21:36:58.648Z,1.73
2018-09-28T21:42:01.726Z,1.57
2018-09-28T21:47:04.844Z,1.67
2018-09-28T21:52:07.956Z,1.23
2018-09-28T21:57:11.071Z,1.57
2018-09-28T22:02:14.172Z,1.73
2018-09-28T22:07:17.283Z,1.57
2018-09-28T22:12:20.383Z,1.80
2018-09-28T22:17:23.481Z,1.50
2018-09-28T22:22:26.544Z,1.50
2018-09-28T22:27:29.612Z,1.47
2018-09-28T22:32:32.731Z,1.40
2018-09-28T22:37:35.825Z,10.83
2018-09-28T22:42:38.930Z,9.97
2018-09-28T22:47:42.026Z,5.40
2018-09-28T22:52:45.180Z,1.63
2018-09-28T22:57:48.264Z,1.17
2018-09-28T23:02:51.363Z,1.20
2018-09-28T23:07:54.487Z,1.10
2018-09-28T23:12:57.611Z,1.23
2018-09-28T23:18:00.692Z,1.70
2018-09-28T23:23:03.780Z,1.17
2018-09-28T23:28:06.882Z,1.07
2018-09-28T23:33:09.980Z,1.63
2018-09-28T23:38:13.143Z,1.27
2018-09-28T23:43:16.225Z,1.93
2018-09-28T23:48:19.303Z,1.30
2018-09-28T23:53:22.407Z,1.47
2018-09-28T23:58:25.558Z,1.40
